Theologos P . — SZNB — position and weather

sailwx.info

Track history (hours):
 
Tides and Currents Weather Stations Pressure Air Temp Water Temp Dewpoint Dewpoint Depression Visibility Wind Speed Wind Dir Waves Ship Positions

Theologos P .

Last reported at 2015-Sep-02 18:33 UTC. Time now 2015-Sep-02 19:06 UTC.
Position N 37°32' E 025°08'.

Length 118 m; draft 4.5 m.

Type: Passenger vessel. MMSI: 240521000.

Date/timePositionNaut miles runAvg speedWind from/ knotsBaromVisibWave heightAir tempDewpointWater temp
2015-Sep-02 18:33N 37°32' E 025°08'1818.0
2015-Sep-02 17:32N 37°45' E 024°51'2813.7
2015-Sep-02 15:28N 37°57' E 024°18'15 2.4
2015-Sep-02 09:23N 38°01' E 024°01'1517.7
2015-Sep-02 08:31N 37°56' E 024°19'2713.8
2015-Sep-02 06:32N 37°45' E 024°50'1818.5
2015-Sep-02 05:33N 37°33' E 025°07'1110.8
2015-Sep-02 04:33N 37°28' E 025°20'0 0.0
2015-Sep-02 03:33N 37°28' E 025°20'0 0.0
2015-Sep-02 02:33N 37°28' E 025°20'0 0.0
2015-Sep-02 01:33N 37°28' E 025°20'0 0.0
2015-Sep-02 00:33N 37°28' E 025°20'0 0.0
2015-Sep-01 23:31N 37°28' E 025°20'0 0.0
2015-Sep-01 22:33N 37°28' E 025°20'0 0.0
2015-Sep-01 21:33N 37°28' E 025°20'0 0.0
2015-Sep-01 20:33N 37°28' E 025°20'0 0.4
2015-Sep-01 19:33N 37°28' E 025°19'1211.7
2015-Sep-01 18:33N 37°33' E 025°06'4715.0
2015-Sep-01 15:24N 37°58' E 024°15'12 1.9
2015-Sep-01 09:24N 38°01' E 024°01'1417.1
2015-Sep-01 08:33N 37°57' E 024°18'2814.1
2015-Sep-01 06:32N 37°45' E 024°51'1818.1
2015-Sep-01 05:33N 37°33' E 025°07'1110.9
2015-Sep-01 04:33N 37°28' E 025°20'0 0.0
2015-Sep-01 03:33N 37°28' E 025°20'0 0.0
2015-Sep-01 02:33N 37°28' E 025°20'0 0.0
2015-Sep-01 01:33N 37°28' E 025°20'0 0.0
2015-Sep-01 00:33N 37°28' E 025°20'0 0.0
2015-Aug-31 23:34N 37°28' E 025°20'0 0.0
2015-Aug-31 22:33N 37°28' E 025°20'0 0.0
2015-Aug-31 21:33N 37°28' E 025°20'0 0.0
2015-Aug-31 20:33N 37°28' E 025°20'0 0.0
2015-Aug-31 19:33N 37°28' E 025°20'9 9.2
2015-Aug-31 18:33N 37°32' E 025°09'1716.9
2015-Aug-31 17:33N 37°43' E 024°53'3314.4
2015-Aug-31 15:14N 37°58' E 024°15'9 1.6
2015-Aug-31 09:33N 38°01' E 024°04'1818.2
2015-Aug-31 08:33N 37°54' E 024°26'2211.2
2015-Aug-31 06:33N 37°44' E 024°51'1818.1
2015-Aug-31 05:33N 37°32' E 025°08'1010.1
2015-Aug-31 04:33N 37°28' E 025°20'0 0.0
2015-Aug-31 03:33N 37°28' E 025°20'0 0.0
2015-Aug-31 02:32N 37°28' E 025°20'0 0.0
2015-Aug-31 01:33N 37°28' E 025°20'0 0.0
2015-Aug-31 00:33N 37°28' E 025°20'1111.2
2015-Aug-30 23:33N 37°33' E 025°07'4418.0
2015-Aug-30 21:08N 37°54' E 024°19'1118.1
2015-Aug-30 20:33N 37°59' E 024°07'5 5.3
2015-Aug-30 19:32N 38°01' E 024°01'1616.6
2015-Aug-30 18:34N 37°56' E 024°20'5 1.4
2015-Aug-30 15:15N 37°58' E 024°15'1210.3
2015-Aug-30 14:06N 38°01' E 024°01'916.4
2015-Aug-30 13:33N 37°58' E 024°12'3413.7
2015-Aug-30 11:06N 37°45' E 024°51'1018.1
2015-Aug-30 10:34N 37°38' E 024°60'1110.7
2015-Aug-30 09:34N 37°31' E 025°10'8 8.3
2015-Aug-30 08:33N 37°28' E 025°20'0 0.0
2015-Aug-30 07:34N 37°28' E 025°20'0 0.0
2015-Aug-30 06:34N 37°28' E 025°20'0 0.0
2015-Aug-30 05:33N 37°28' E 025°20'0 0.0
2015-Aug-30 04:33N 37°28' E 025°20'0 0.0
2015-Aug-30 03:33N 37°28' E 025°20'0 0.0
2015-Aug-30 02:33N 37°28' E 025°20'0 0.0
2015-Aug-30 01:33N 37°28' E 025°20'0 0.0
2015-Aug-30 00:33N 37°28' E 025°20'0 0.0
2015-Aug-29 23:34N 37°28' E 025°20'0 0.0
2015-Aug-29 22:34N 37°28' E 025°20'0 0.0
2015-Aug-29 21:33N 37°28' E 025°20'0 0.0
2015-Aug-29 20:33N 37°28' E 025°20'2 2.4
2015-Aug-29 19:33N 37°29' E 025°17'1212.4
2015-Aug-29 18:33N 37°35' E 025°03'4815.6
2015-Aug-29 15:27N 37°59' E 024°10'8 6.9
2015-Aug-29 14:19N 38°01' E 024°01'1316.5
2015-Aug-29 13:33N 37°57' E 024°16'3012.8
2015-Aug-29 11:12N 37°45' E 024°51'1217.9
2015-Aug-29 10:33N 37°37' E 025°01'9 9.1
2015-Aug-29 09:33N 37°31' E 025°10'8 8.2
2015-Aug-29 08:33N 37°28' E 025°20'0 0.0
2015-Aug-29 07:33N 37°28' E 025°20'0 0.0
2015-Aug-29 06:33N 37°28' E 025°20'0 0.0
2015-Aug-29 05:34N 37°28' E 025°20'0 0.0
2015-Aug-29 04:33N 37°28' E 025°20'0 0.0
2015-Aug-29 03:33N 37°28' E 025°20'0 0.0
2015-Aug-29 02:33N 37°28' E 025°20'0 0.0
2015-Aug-29 01:33N 37°28' E 025°20'0 0.0
2015-Aug-29 00:33N 37°28' E 025°20'0 0.0
2015-Aug-28 23:33N 37°28' E 025°20'0 0.0
2015-Aug-28 22:33N 37°28' E 025°20'0 0.0
2015-Aug-28 21:33N 37°28' E 025°20'0 0.0
2015-Aug-28 20:33N 37°28' E 025°20'0 0.2
2015-Aug-28 19:34N 37°28' E 025°19'1010.3
2015-Aug-28 18:33N 37°33' E 025°08'1818.3
2015-Aug-28 17:33N 37°45' E 024°51'3113.5
2015-Aug-28 15:17N 37°58' E 024°15'11 2.0
2015-Aug-28 09:33N 38°01' E 024°02'1918.4
2015-Aug-28 08:33N 37°55' E 024°24'2411.9
2015-Aug-28 06:34N 37°44' E 024°51'1818.2
2015-Aug-28 05:34N 37°32' E 025°08'1010.2
2015-Aug-28 04:33N 37°28' E 025°20'0 0.0
2015-Aug-28 03:33N 37°28' E 025°20'0 0.0
2015-Aug-28 02:33N 37°28' E 025°20'0 0.0
2015-Aug-28 01:33N 37°28' E 025°20'0 0.0
2015-Aug-28 00:33N 37°28' E 025°20'0 0.0
2015-Aug-27 23:33N 37°28' E 025°20'0 0.0
2015-Aug-27 22:33N 37°28' E 025°20'0 0.0
2015-Aug-27 21:33N 37°28' E 025°20'0 0.0
2015-Aug-27 20:33N 37°28' E 025°20'0 0.0
2015-Aug-27 19:33N 37°28' E 025°20'10 9.8
2015-Aug-27 18:33N 37°32' E 025°09'1818.4
2015-Aug-27 17:33N 37°45' E 024°51'3214.0
2015-Aug-27 15:17N 37°58' E 024°15'7 1.3
2015-Aug-27 09:34N 38°00' E 024°06'4013.5
2015-Aug-27 06:34N 37°43' E 024°52'1717.5
2015-Aug-27 05:33N 37°32' E 025°09'9 9.3
2015-Aug-27 04:33N 37°28' E 025°20'0 0.0
2015-Aug-27 03:33N 37°28' E 025°20'0 0.0
2015-Aug-27 02:33N 37°28' E 025°20'0 0.0
2015-Aug-27 01:33N 37°28' E 025°20'0 0.0
2015-Aug-27 00:33N 37°28' E 025°20'0 0.0
2015-Aug-26 23:33N 37°28' E 025°20'0 0.0
2015-Aug-26 22:33N 37°28' E 025°20'0 0.0
2015-Aug-26 21:33N 37°28' E 025°20'0 0.0
2015-Aug-26 20:34N 37°28' E 025°20'0 0.0
2015-Aug-26 19:33N 37°28' E 025°20'9 9.3
2015-Aug-26 18:33N 37°32' E 025°09'1717.4
2015-Aug-26 17:33N 37°43' E 024°53'3113.9
2015-Aug-26 15:21N 37°57' E 024°18'14 2.5
2015-Aug-26 09:33N 38°01' E 024°01'2317.6
2015-Aug-26 08:16N 37°54' E 024°28'2112.4
2015-Aug-26 06:33N 37°44' E 024°51'1817.8
2015-Aug-26 05:33N 37°32' E 025°08'1010.1
2015-Aug-26 04:33N 37°28' E 025°20'0 0.0
2015-Aug-26 03:33N 37°28' E 025°20'0 0.0
2015-Aug-26 02:33N 37°28' E 025°20'0 0.0
2015-Aug-26 01:33N 37°28' E 025°20'0 0.0
2015-Aug-26 00:33N 37°28' E 025°20'0 0.0
2015-Aug-25 23:33N 37°28' E 025°20'0 0.0
2015-Aug-25 22:33N 37°28' E 025°20'0 0.0
2015-Aug-25 21:33N 37°28' E 025°20'0 0.0
2015-Aug-25 20:33N 37°28' E 025°20'0 0.0
2015-Aug-25 19:33N 37°28' E 025°20'9 9.4
2015-Aug-25 18:34N 37°32' E 025°09'1818.1
2015-Aug-25 17:33N 37°44' E 024°52'3414.1
2015-Aug-25 15:08N 37°58' E 024°13'8 1.5
2015-Aug-25 09:33N 38°01' E 024°03'2118.3
2015-Aug-25 08:24N 37°54' E 024°28'2212.0
2015-Aug-25 06:34N 37°43' E 024°52'1717.3
2015-Aug-25 05:33N 37°32' E 025°09'9 9.3
2015-Aug-25 04:33N 37°28' E 025°20'0 0.0
2015-Aug-25 03:33N 37°28' E 025°20'0 0.0
2015-Aug-25 02:33N 37°28' E 025°20'0 0.0
2015-Aug-25 01:34N 37°28' E 025°20'0 0.0
2015-Aug-25 00:33N 37°28' E 025°20'0 0.0
2015-Aug-24 23:33N 37°28' E 025°20'0 0.0
2015-Aug-24 22:33N 37°28' E 025°20'0 0.0
2015-Aug-24 21:33N 37°28' E 025°20'0 0.0
2015-Aug-24 20:33N 37°28' E 025°20'0 0.0
2015-Aug-24 19:33N 37°28' E 025°20'9 9.3
2015-Aug-24 18:33N 37°32' E 025°09'1717.5
2015-Aug-24 17:33N 37°44' E 024°53'3514.4
2015-Aug-24 15:09N 37°58' E 024°13'5 0.9
2015-Aug-24 09:33N 37°60' E 024°07'3913.0
2015-Aug-24 06:33N 37°43' E 024°51'1817.7
2015-Aug-24 05:33N 37°32' E 025°09'10 9.8
2015-Aug-24 04:33N 37°28' E 025°20'0 0.0
2015-Aug-24 03:33N 37°28' E 025°20'0 0.0
2015-Aug-24 02:33N 37°28' E 025°20'0 0.0
2015-Aug-24 01:33N 37°28' E 025°20'0 0.1
2015-Aug-24 00:34N 37°28' E 025°19'1313.0
2015-Aug-23 23:33N 37°34' E 025°05'3918.0
2015-Aug-23 21:24N 37°53' E 024°22'1517.8
2015-Aug-23 20:33N 37°60' E 024°05'4 3.9
2015-Aug-23 19:33N 38°01' E 024°01'  
Track history (hours):
 
Tides and Currents Weather Stations Pressure Air Temp Water Temp Dewpoint Dewpoint Depression Visibility Wind Speed Wind Dir Waves Ship Positions

Theologos P .

Last reported at 2015-Sep-02 18:33 UTC. Time now 2015-Sep-02 19:06 UTC.
Position N 37°32' E 025°08'.

Length 118 m; draft 4.5 m.

Type: Passenger vessel. MMSI: 240521000.

Date/timePositionNaut miles runAvg speedWind from/ knotsBaromVisibWave heightAir tempDewpointWater temp
2015-Sep-02 18:33N 37°32' E 025°08'1818.0
2015-Sep-02 17:32N 37°45' E 024°51'2813.7
2015-Sep-02 15:28N 37°57' E 024°18'15 2.4
2015-Sep-02 09:23N 38°01' E 024°01'1517.7
2015-Sep-02 08:31N 37°56' E 024°19'2713.8
2015-Sep-02 06:32N 37°45' E 024°50'1818.5
2015-Sep-02 05:33N 37°33' E 025°07'1110.8
2015-Sep-02 04:33N 37°28' E 025°20'0 0.0
2015-Sep-02 03:33N 37°28' E 025°20'0 0.0
2015-Sep-02 02:33N 37°28' E 025°20'0 0.0
2015-Sep-02 01:33N 37°28' E 025°20'0 0.0
2015-Sep-02 00:33N 37°28' E 025°20'0 0.0
2015-Sep-01 23:31N 37°28' E 025°20'0 0.0
2015-Sep-01 22:33N 37°28' E 025°20'0 0.0
2015-Sep-01 21:33N 37°28' E 025°20'0 0.0
2015-Sep-01 20:33N 37°28' E 025°20'0 0.4
2015-Sep-01 19:33N 37°28' E 025°19'1211.7
2015-Sep-01 18:33N 37°33' E 025°06'4715.0
2015-Sep-01 15:24N 37°58' E 024°15'12 1.9
2015-Sep-01 09:24N 38°01' E 024°01'1417.1
2015-Sep-01 08:33N 37°57' E 024°18'2814.1
2015-Sep-01 06:32N 37°45' E 024°51'1818.1
2015-Sep-01 05:33N 37°33' E 025°07'1110.9
2015-Sep-01 04:33N 37°28' E 025°20'0 0.0
2015-Sep-01 03:33N 37°28' E 025°20'0 0.0
2015-Sep-01 02:33N 37°28' E 025°20'0 0.0
2015-Sep-01 01:33N 37°28' E 025°20'0 0.0
2015-Sep-01 00:33N 37°28' E 025°20'0 0.0
2015-Aug-31 23:34N 37°28' E 025°20'0 0.0
2015-Aug-31 22:33N 37°28' E 025°20'0 0.0
2015-Aug-31 21:33N 37°28' E 025°20'0 0.0
2015-Aug-31 20:33N 37°28' E 025°20'0 0.0
2015-Aug-31 19:33N 37°28' E 025°20'9 9.2
2015-Aug-31 18:33N 37°32' E 025°09'1716.9
2015-Aug-31 17:33N 37°43' E 024°53'3314.4
2015-Aug-31 15:14N 37°58' E 024°15'9 1.6
2015-Aug-31 09:33N 38°01' E 024°04'1818.2
2015-Aug-31 08:33N 37°54' E 024°26'2211.2
2015-Aug-31 06:33N 37°44' E 024°51'1818.1
2015-Aug-31 05:33N 37°32' E 025°08'1010.1
2015-Aug-31 04:33N 37°28' E 025°20'0 0.0
2015-Aug-31 03:33N 37°28' E 025°20'0 0.0
2015-Aug-31 02:32N 37°28' E 025°20'0 0.0
2015-Aug-31 01:33N 37°28' E 025°20'0 0.0
2015-Aug-31 00:33N 37°28' E 025°20'1111.2
2015-Aug-30 23:33N 37°33' E 025°07'4418.0
2015-Aug-30 21:08N 37°54' E 024°19'1118.1
2015-Aug-30 20:33N 37°59' E 024°07'5 5.3
2015-Aug-30 19:32N 38°01' E 024°01'1616.6
2015-Aug-30 18:34N 37°56' E 024°20'5 1.4
2015-Aug-30 15:15N 37°58' E 024°15'1210.3
2015-Aug-30 14:06N 38°01' E 024°01'916.4
2015-Aug-30 13:33N 37°58' E 024°12'3413.7
2015-Aug-30 11:06N 37°45' E 024°51'1018.1
2015-Aug-30 10:34N 37°38' E 024°60'1110.7
2015-Aug-30 09:34N 37°31' E 025°10'8 8.3
2015-Aug-30 08:33N 37°28' E 025°20'0 0.0
2015-Aug-30 07:34N 37°28' E 025°20'0 0.0
2015-Aug-30 06:34N 37°28' E 025°20'0 0.0
2015-Aug-30 05:33N 37°28' E 025°20'0 0.0
2015-Aug-30 04:33N 37°28' E 025°20'0 0.0
2015-Aug-30 03:33N 37°28' E 025°20'0 0.0
2015-Aug-30 02:33N 37°28' E 025°20'0 0.0
2015-Aug-30 01:33N 37°28' E 025°20'0 0.0
2015-Aug-30 00:33N 37°28' E 025°20'0 0.0
2015-Aug-29 23:34N 37°28' E 025°20'0 0.0
2015-Aug-29 22:34N 37°28' E 025°20'0 0.0
2015-Aug-29 21:33N 37°28' E 025°20'0 0.0
2015-Aug-29 20:33N 37°28' E 025°20'2 2.4
2015-Aug-29 19:33N 37°29' E 025°17'1212.4
2015-Aug-29 18:33N 37°35' E 025°03'4815.6
2015-Aug-29 15:27N 37°59' E 024°10'8 6.9
2015-Aug-29 14:19N 38°01' E 024°01'1316.5
2015-Aug-29 13:33N 37°57' E 024°16'3012.8
2015-Aug-29 11:12N 37°45' E 024°51'1217.9
2015-Aug-29 10:33N 37°37' E 025°01'9 9.1
2015-Aug-29 09:33N 37°31' E 025°10'8 8.2
2015-Aug-29 08:33N 37°28' E 025°20'0 0.0
2015-Aug-29 07:33N 37°28' E 025°20'0 0.0
2015-Aug-29 06:33N 37°28' E 025°20'0 0.0
2015-Aug-29 05:34N 37°28' E 025°20'0 0.0
2015-Aug-29 04:33N 37°28' E 025°20'0 0.0
2015-Aug-29 03:33N 37°28' E 025°20'0 0.0
2015-Aug-29 02:33N 37°28' E 025°20'0 0.0
2015-Aug-29 01:33N 37°28' E 025°20'0 0.0
2015-Aug-29 00:33N 37°28' E 025°20'0 0.0
2015-Aug-28 23:33N 37°28' E 025°20'0 0.0
2015-Aug-28 22:33N 37°28' E 025°20'0 0.0
2015-Aug-28 21:33N 37°28' E 025°20'0 0.0
2015-Aug-28 20:33N 37°28' E 025°20'0 0.2
2015-Aug-28 19:34N 37°28' E 025°19'1010.3
2015-Aug-28 18:33N 37°33' E 025°08'1818.3
2015-Aug-28 17:33N 37°45' E 024°51'3113.5
2015-Aug-28 15:17N 37°58' E 024°15'11 2.0
2015-Aug-28 09:33N 38°01' E 024°02'1918.4
2015-Aug-28 08:33N 37°55' E 024°24'2411.9
2015-Aug-28 06:34N 37°44' E 024°51'1818.2
2015-Aug-28 05:34N 37°32' E 025°08'1010.2
2015-Aug-28 04:33N 37°28' E 025°20'0 0.0
2015-Aug-28 03:33N 37°28' E 025°20'0 0.0
2015-Aug-28 02:33N 37°28' E 025°20'0 0.0
2015-Aug-28 01:33N 37°28' E 025°20'0 0.0
2015-Aug-28 00:33N 37°28' E 025°20'0 0.0
2015-Aug-27 23:33N 37°28' E 025°20'0 0.0
2015-Aug-27 22:33N 37°28' E 025°20'0 0.0
2015-Aug-27 21:33N 37°28' E 025°20'0 0.0
2015-Aug-27 20:33N 37°28' E 025°20'0 0.0
2015-Aug-27 19:33N 37°28' E 025°20'10 9.8
2015-Aug-27 18:33N 37°32' E 025°09'1818.4
2015-Aug-27 17:33N 37°45' E 024°51'3214.0
2015-Aug-27 15:17N 37°58' E 024°15'7 1.3
2015-Aug-27 09:34N 38°00' E 024°06'4013.5
2015-Aug-27 06:34N 37°43' E 024°52'1717.5
2015-Aug-27 05:33N 37°32' E 025°09'9 9.3
2015-Aug-27 04:33N 37°28' E 025°20'0 0.0
2015-Aug-27 03:33N 37°28' E 025°20'0 0.0
2015-Aug-27 02:33N 37°28' E 025°20'0 0.0
2015-Aug-27 01:33N 37°28' E 025°20'0 0.0
2015-Aug-27 00:33N 37°28' E 025°20'0 0.0
2015-Aug-26 23:33N 37°28' E 025°20'0 0.0
2015-Aug-26 22:33N 37°28' E 025°20'0 0.0
2015-Aug-26 21:33N 37°28' E 025°20'0 0.0
2015-Aug-26 20:34N 37°28' E 025°20'0 0.0
2015-Aug-26 19:33N 37°28' E 025°20'9 9.3
2015-Aug-26 18:33N 37°32' E 025°09'1717.4
2015-Aug-26 17:33N 37°43' E 024°53'3113.9
2015-Aug-26 15:21N 37°57' E 024°18'14 2.5
2015-Aug-26 09:33N 38°01' E 024°01'2317.6
2015-Aug-26 08:16N 37°54' E 024°28'2112.4
2015-Aug-26 06:33N 37°44' E 024°51'1817.8
2015-Aug-26 05:33N 37°32' E 025°08'1010.1
2015-Aug-26 04:33N 37°28' E 025°20'0 0.0
2015-Aug-26 03:33N 37°28' E 025°20'0 0.0
2015-Aug-26 02:33N 37°28' E 025°20'0 0.0
2015-Aug-26 01:33N 37°28' E 025°20'0 0.0
2015-Aug-26 00:33N 37°28' E 025°20'0 0.0
2015-Aug-25 23:33N 37°28' E 025°20'0 0.0
2015-Aug-25 22:33N 37°28' E 025°20'0 0.0
2015-Aug-25 21:33N 37°28' E 025°20'0 0.0
2015-Aug-25 20:33N 37°28' E 025°20'0 0.0
2015-Aug-25 19:33N 37°28' E 025°20'9 9.4
2015-Aug-25 18:34N 37°32' E 025°09'1818.1
2015-Aug-25 17:33N 37°44' E 024°52'3414.1
2015-Aug-25 15:08N 37°58' E 024°13'8 1.5
2015-Aug-25 09:33N 38°01' E 024°03'2118.3
2015-Aug-25 08:24N 37°54' E 024°28'2212.0
2015-Aug-25 06:34N 37°43' E 024°52'1717.3
2015-Aug-25 05:33N 37°32' E 025°09'9 9.3
2015-Aug-25 04:33N 37°28' E 025°20'0 0.0
2015-Aug-25 03:33N 37°28' E 025°20'0 0.0
2015-Aug-25 02:33N 37°28' E 025°20'0 0.0
2015-Aug-25 01:34N 37°28' E 025°20'0 0.0
2015-Aug-25 00:33N 37°28' E 025°20'0 0.0
2015-Aug-24 23:33N 37°28' E 025°20'0 0.0
2015-Aug-24 22:33N 37°28' E 025°20'0 0.0
2015-Aug-24 21:33N 37°28' E 025°20'0 0.0
2015-Aug-24 20:33N 37°28' E 025°20'0 0.0
2015-Aug-24 19:33N 37°28' E 025°20'9 9.3
2015-Aug-24 18:33N 37°32' E 025°09'1717.5
2015-Aug-24 17:33N 37°44' E 024°53'3514.4
2015-Aug-24 15:09N 37°58' E 024°13'5 0.9
2015-Aug-24 09:33N 37°60' E 024°07'3913.0
2015-Aug-24 06:33N 37°43' E 024°51'1817.7
2015-Aug-24 05:33N 37°32' E 025°09'10 9.8
2015-Aug-24 04:33N 37°28' E 025°20'0 0.0
2015-Aug-24 03:33N 37°28' E 025°20'0 0.0
2015-Aug-24 02:33N 37°28' E 025°20'0 0.0
2015-Aug-24 01:33N 37°28' E 025°20'0 0.1
2015-Aug-24 00:34N 37°28' E 025°19'1313.0
2015-Aug-23 23:33N 37°34' E 025°05'3918.0
2015-Aug-23 21:24N 37°53' E 024°22'1517.8
2015-Aug-23 20:33N 37°60' E 024°05'4 3.9
2015-Aug-23 19:33N 38°01' E 024°01'  

Dump ship's entire track history